Terminal Aerodrome Forecast
Issued by NWS

Home | Current Version | Previous Version | Text Only | Print | Product List | Glossary On
Versions: 1 2 3 4 5 6 7 8 9 10 11 12 13 14 15 16 17 18 19 20 21 22 23 24
000
FTUS43 KIND 212325
TAFLAF
TAF
KLAF 212325Z 2200/2224 19005KT P6SM FEW200
     FM220400 VRB03KT P6SM BKN090
     FM220600 VRB03KT 5SM BR BKN060
     FM220800 VRB03KT 2SM BR BKN015
     FM221000 VRB03KT 1/2SM FG BKN010
     FM221200 VRB03KT 1/2SM FG VCSH OVC010
     FM221600 05006KT 2SM BR VCSH OVC015
     FM221800 04007KT 5SM BR OVC020
     FM222200 02011KT 3SM BR OVC015
      AMD LTD TO CLD VIS AND WIND 2202/2214=

USA.gov is the U.S. government's official web portal to all federal, state and local government web resources and services.